createdAt,value
2023-01-17T00:02:20.606Z,1.90
2023-01-17T00:05:06.499Z,1.90
2023-01-17T00:07:52.137Z,1.80
2023-01-17T00:10:20.971Z,1.90
2023-01-17T00:12:53.027Z,1.90
2023-01-17T00:15:20.766Z,2.00
2023-01-17T00:17:48.583Z,2.10
2023-01-17T00:20:39.633Z,2.00
2023-01-17T00:23:27.056Z,2.10
2023-01-17T00:26:03.643Z,1.90
2023-01-17T00:28:35.745Z,1.80
2023-01-17T00:31:03.235Z,1.90
2023-01-17T00:33:30.875Z,2.00
2023-01-17T00:35:58.304Z,2.10
2023-01-17T00:38:27.026Z,2.20
2023-01-17T00:40:54.444Z,2.20
2023-01-17T00:43:41.876Z,2.30
2023-01-17T00:46:27.995Z,2.20
2023-01-17T00:49:14.151Z,2.10
2023-01-17T00:51:59.968Z,2.10
2023-01-17T00:54:45.865Z,2.10
2023-01-17T00:57:31.663Z,2.10
2023-01-17T01:00:17.503Z,2.20
2023-01-17T01:03:03.411Z,2.20
2023-01-17T01:05:49.277Z,2.10
2023-01-17T01:08:37.004Z,2.10
2023-01-17T01:11:31.079Z,2.10
2023-01-17T01:14:18.060Z,2.10
2023-01-17T01:17:03.757Z,2.10
2023-01-17T01:19:49.666Z,2.10
2023-01-17T01:22:35.524Z,1.90
2023-01-17T01:25:21.894Z,1.90
2023-01-17T01:28:08.102Z,1.90
2023-01-17T01:30:54.077Z,1.80
2023-01-17T01:33:21.337Z,1.90
2023-01-17T01:35:50.519Z,1.80
2023-01-17T01:38:19.099Z,1.80
2023-01-17T01:40:48.245Z,1.70
2023-01-17T01:43:17.938Z,1.80
2023-01-17T01:45:47.565Z,1.90
2023-01-17T01:48:35.012Z,1.90
2023-01-17T01:51:04.224Z,1.80
2023-01-17T01:53:32.883Z,1.90
2023-01-17T01:56:00.298Z,1.90
2023-01-17T01:58:29.337Z,1.90
2023-01-17T02:00:56.691Z,2.10
2023-01-17T02:03:30.206Z,2.10
2023-01-17T02:05:59.743Z,2.20
2023-01-17T02:08:27.250Z,2.20
2023-01-17T02:10:54.436Z,2.30
2023-01-17T02:13:21.885Z,2.20
2023-01-17T02:16:01.894Z,2.20
2023-01-17T02:18:29.116Z,2.20
2023-01-17T02:21:03.237Z,2.20
2023-01-17T02:23:39.730Z,2.10
2023-01-17T02:26:24.970Z,2.00
2023-01-17T02:29:15.596Z,2.10
2023-01-17T02:31:51.940Z,2.10
2023-01-17T02:34:48.629Z,2.00
2023-01-17T02:37:41.095Z,2.00
2023-01-17T02:40:17.222Z,2.00
2023-01-17T02:42:47.465Z,2.00
2023-01-17T02:45:21.697Z,2.10
2023-01-17T02:47:49.481Z,2.00
2023-01-17T02:50:19.818Z,2.10
2023-01-17T02:53:12.565Z,2.00
2023-01-17T02:55:52.380Z,2.00
2023-01-17T02:58:35.101Z,1.90
2023-01-17T03:01:25.689Z,1.90
2023-01-17T03:04:05.950Z,2.00
2023-01-17T03:06:37.548Z,2.00
2023-01-17T03:09:05.104Z,1.90
2023-01-17T03:11:33.636Z,1.80
2023-01-17T03:14:00.678Z,1.80
2023-01-17T03:16:28.893Z,1.70
2023-01-17T03:18:56.583Z,1.70
2023-01-17T03:21:24.328Z,1.70
2023-01-17T03:23:51.900Z,1.70
2023-01-17T03:26:19.107Z,1.80
2023-01-17T03:28:46.430Z,1.70
2023-01-17T03:31:17.460Z,1.80
2023-01-17T03:33:44.893Z,1.80
2023-01-17T03:36:12.379Z,1.80
2023-01-17T03:38:39.694Z,1.90
2023-01-17T03:41:07.557Z,1.90
2023-01-17T03:43:34.749Z,1.90
2023-01-17T03:46:05.899Z,1.90
2023-01-17T03:48:33.665Z,1.80
2023-01-17T03:51:01.217Z,1.80
2023-01-17T03:53:28.574Z,1.90
2023-01-17T03:55:56.383Z,1.70
2023-01-17T03:58:23.856Z,1.60
2023-01-17T04:00:51.169Z,1.70
2023-01-17T04:03:18.405Z,1.70
2023-01-17T04:05:45.827Z,1.50
2023-01-17T04:08:13.337Z,1.50
2023-01-17T04:10:40.552Z,1.40
2023-01-17T04:13:07.880Z,1.40
2023-01-17T04:15:35.305Z,1.50
2023-01-17T04:18:04.235Z,1.40
2023-01-17T04:20:34.066Z,1.40
2023-01-17T04:23:01.223Z,1.40
2023-01-17T04:25:30.302Z,1.40
2023-01-17T04:27:58.834Z,1.50
2023-01-17T04:30:26.199Z,1.50
2023-01-17T04:32:54.155Z,1.50
2023-01-17T04:35:21.617Z,1.40
2023-01-17T04:37:49.261Z,1.40
2023-01-17T04:40:16.988Z,1.30
2023-01-17T04:42:48.218Z,1.30
2023-01-17T04:45:15.653Z,1.30
2023-01-17T04:47:43.049Z,1.30
2023-01-17T04:50:11.194Z,1.20
2023-01-17T04:52:38.404Z,1.10
2023-01-17T04:55:06.148Z,1.20
2023-01-17T04:57:33.625Z,1.20
2023-01-17T05:00:01.188Z,1.20
2023-01-17T05:02:28.655Z,1.20
2023-01-17T05:04:55.878Z,1.20
2023-01-17T05:07:23.127Z,1.10
2023-01-17T05:09:50.622Z,1.10
2023-01-17T05:12:17.939Z,1.10
2023-01-17T05:14:45.131Z,1.10
2023-01-17T05:17:12.720Z,1.20
2023-01-17T05:19:40.137Z,1.20
2023-01-17T05:22:15.592Z,1.20
2023-01-17T05:24:43.998Z,1.20
2023-01-17T05:27:12.449Z,1.10
2023-01-17T05:29:39.875Z,1.20
2023-01-17T05:32:07.079Z,1.20
2023-01-17T05:34:35.298Z,1.20
2023-01-17T05:37:02.829Z,1.20
2023-01-17T05:39:31.284Z,1.20
2023-01-17T05:41:59.530Z,1.20
2023-01-17T05:44:28.006Z,1.30
2023-01-17T05:46:56.439Z,1.30
2023-01-17T05:49:23.834Z,1.40
2023-01-17T05:51:52.922Z,1.50
2023-01-17T05:54:22.072Z,1.60
2023-01-17T05:56:49.352Z,1.70
2023-01-17T05:59:20.512Z,1.70
2023-01-17T06:01:54.615Z,1.70
2023-01-17T06:04:22.067Z,1.90
2023-01-17T06:06:49.344Z,2.00
2023-01-17T06:09:16.810Z,2.00
2023-01-17T06:11:44.161Z,2.00
2023-01-17T06:14:12.038Z,2.00
2023-01-17T06:16:39.442Z,2.10
2023-01-17T06:19:06.807Z,2.00
2023-01-17T06:21:34.241Z,1.90
2023-01-17T06:24:03.299Z,1.90
2023-01-17T06:26:31.449Z,2.00
2023-01-17T06:28:59.247Z,2.10
2023-01-17T06:31:26.698Z,2.00
2023-01-17T06:33:54.148Z,1.90
2023-01-17T06:36:21.594Z,1.90
2023-01-17T06:38:51.636Z,1.90
2023-01-17T06:41:18.933Z,1.70
2023-01-17T06:43:46.464Z,1.80
2023-01-17T06:46:13.925Z,1.80
2023-01-17T06:48:44.138Z,1.70
2023-01-17T06:51:11.924Z,1.70
2023-01-17T06:53:40.606Z,1.70
2023-01-17T06:56:09.161Z,1.70
2023-01-17T06:58:36.723Z,1.60
2023-01-17T07:01:11.375Z,1.50
2023-01-17T07:03:38.889Z,1.40
2023-01-17T07:06:06.461Z,1.40
2023-01-17T07:08:34.144Z,1.40
2023-01-17T07:11:02.825Z,1.30
2023-01-17T07:13:31.278Z,1.20
2023-01-17T07:16:00.797Z,1.30
2023-01-17T07:18:28.534Z,1.30
2023-01-17T07:20:56.276Z,1.30
2023-01-17T07:23:24.142Z,1.30
2023-01-17T07:25:58.806Z,1.20
2023-01-17T07:28:27.577Z,1.20
2023-01-17T07:30:55.087Z,1.30
2023-01-17T07:33:22.567Z,1.40
2023-01-17T07:35:50.278Z,1.40
2023-01-17T07:38:19.239Z,1.50
2023-01-17T07:40:46.670Z,1.60
2023-01-17T07:43:14.505Z,1.50
2023-01-17T07:45:45.907Z,1.70
2023-01-17T07:48:13.847Z,1.80
2023-01-17T07:50:41.450Z,1.90
2023-01-17T07:53:08.747Z,1.90
2023-01-17T07:55:36.159Z,1.80
2023-01-17T07:58:03.587Z,1.70
2023-01-17T08:00:31.061Z,1.80
2023-01-17T08:03:01.779Z,1.90
2023-01-17T08:05:30.814Z,2.00
2023-01-17T08:07:58.301Z,2.10
2023-01-17T08:10:25.639Z,2.10
2023-01-17T08:12:53.211Z,2.10
2023-01-17T08:15:20.681Z,2.10
2023-01-17T08:17:49.061Z,2.30
2023-01-17T08:20:17.015Z,2.20
2023-01-17T08:22:44.659Z,2.30
2023-01-17T08:25:13.135Z,2.40
2023-01-17T08:27:40.475Z,2.60
2023-01-17T08:30:08.568Z,2.50
2023-01-17T08:32:36.106Z,2.80
2023-01-17T08:35:03.448Z,2.70
2023-01-17T08:37:30.748Z,2.80
2023-01-17T08:39:57.845Z,2.80
2023-01-17T08:42:25.040Z,3.00
2023-01-17T08:44:52.342Z,3.00
2023-01-17T08:47:19.787Z,3.10
2023-01-17T08:49:47.149Z,3.10
2023-01-17T08:52:14.841Z,3.10
2023-01-17T08:54:42.224Z,3.10
2023-01-17T08:57:10.777Z,3.20
2023-01-17T08:59:38.095Z,3.30
2023-01-17T09:02:15.150Z,3.50
2023-01-17T09:04:46.311Z,3.50
2023-01-17T09:07:14.166Z,3.50
2023-01-17T09:09:41.660Z,3.40
2023-01-17T09:12:08.976Z,3.50
2023-01-17T09:14:36.399Z,3.60
2023-01-17T09:17:04.199Z,3.70
2023-01-17T09:19:31.448Z,3.80
2023-01-17T09:21:58.738Z,3.80
2023-01-17T09:24:26.343Z,3.80
2023-01-17T09:26:55.327Z,3.90
2023-01-17T09:29:22.691Z,3.90
2023-01-17T09:31:50.097Z,4.00
2023-01-17T09:34:18.901Z,4.00
2023-01-17T09:36:46.565Z,4.00
2023-01-17T09:39:15.482Z,4.10
2023-01-17T09:42:00.679Z,4.20
2023-01-17T09:45:00.428Z,4.10
2023-01-17T09:47:51.824Z,4.10
2023-01-17T09:50:38.160Z,4.20
2023-01-17T09:53:07.784Z,4.40
2023-01-17T09:55:49.288Z,4.30
2023-01-17T09:58:24.029Z,4.30
2023-01-17T10:00:57.741Z,4.40
2023-01-17T10:03:44.270Z,4.40
2023-01-17T10:07:03.434Z,4.30
2023-01-17T10:09:41.745Z,4.30
2023-01-17T10:12:40.183Z,4.40
2023-01-17T10:15:10.305Z,4.30
2023-01-17T10:18:28.735Z,4.40
2023-01-17T10:21:03.576Z,4.50
2023-01-17T10:23:45.309Z,4.70
2023-01-17T10:26:20.929Z,4.60
2023-01-17T10:28:51.539Z,4.60
2023-01-17T10:31:26.201Z,4.60
2023-01-17T10:33:57.523Z,4.70
2023-01-17T10:36:30.461Z,4.90
2023-01-17T10:39:03.657Z,4.90
2023-01-17T10:41:35.930Z,4.80
2023-01-17T10:44:03.294Z,4.90
2023-01-17T10:46:35.118Z,5.00
2023-01-17T10:49:02.881Z,5.20
2023-01-17T10:51:50.892Z,5.30
2023-01-17T10:54:41.674Z,5.20
2023-01-17T10:57:23.345Z,5.20
2023-01-17T10:59:51.160Z,5.20
2023-01-17T11:02:29.649Z,5.20
2023-01-17T11:04:57.489Z,5.20
2023-01-17T11:07:26.469Z,5.20
2023-01-17T11:09:55.413Z,5.20
2023-01-17T11:12:29.443Z,5.20
2023-01-17T11:15:08.832Z,5.20
2023-01-17T11:18:02.065Z,5.20
2023-01-17T11:20:48.570Z,5.30
2023-01-17T11:23:35.756Z,5.40
2023-01-17T11:26:04.320Z,5.40
2023-01-17T11:28:33.087Z,5.50
2023-01-17T11:31:08.516Z,5.70
2023-01-17T11:33:48.033Z,5.70
2023-01-17T11:36:23.114Z,5.70
2023-01-17T11:39:15.794Z,5.70
2023-01-17T11:41:43.349Z,5.80
2023-01-17T11:44:30.780Z,5.80
2023-01-17T11:47:13.425Z,5.90
2023-01-17T11:49:45.614Z,5.80
2023-01-17T11:52:27.946Z,5.80
2023-01-17T11:54:55.590Z,6.00
2023-01-17T11:57:28.255Z,6.00
2023-01-17T12:00:18.089Z,6.00
2023-01-17T12:02:51.311Z,6.00
2023-01-17T12:05:40.740Z,5.90
2023-01-17T12:08:42.954Z,5.90
2023-01-17T12:11:23.211Z,5.90
2023-01-17T12:14:21.609Z,5.90
2023-01-17T12:17:00.869Z,5.80
2023-01-17T12:19:49.853Z,5.80
2023-01-17T12:22:23.210Z,5.70
2023-01-17T12:25:17.745Z,5.50
2023-01-17T12:27:59.298Z,5.60
2023-01-17T12:30:52.248Z,5.50
2023-01-17T12:33:27.437Z,5.60
2023-01-17T12:35:57.481Z,5.40
2023-01-17T12:38:32.858Z,5.20
2023-01-17T12:41:14.765Z,5.20
2023-01-17T12:43:42.291Z,5.40
2023-01-17T12:46:24.358Z,5.30
2023-01-17T12:48:57.174Z,5.30
2023-01-17T12:51:29.975Z,5.30
2023-01-17T12:54:15.487Z,5.40
2023-01-17T12:57:14.558Z,5.40
2023-01-17T13:00:03.452Z,5.20
2023-01-17T13:03:01.582Z,5.10
2023-01-17T13:05:38.940Z,5.10
2023-01-17T13:08:50.728Z,5.00
2023-01-17T13:11:28.951Z,5.00
2023-01-17T13:13:58.342Z,4.90
2023-01-17T13:16:49.270Z,4.90
2023-01-17T13:19:55.150Z,4.90
2023-01-17T13:22:24.587Z,4.80
2023-01-17T13:25:22.993Z,4.70
2023-01-17T13:28:03.290Z,4.50
2023-01-17T13:31:24.358Z,4.50
2023-01-17T13:33:59.415Z,4.40
2023-01-17T13:36:53.308Z,4.50
2023-01-17T13:39:51.310Z,4.40
2023-01-17T13:42:43.605Z,4.10
2023-01-17T13:45:28.014Z,4.20
2023-01-17T13:48:10.493Z,4.20
2023-01-17T13:50:49.110Z,4.30
2023-01-17T13:53:46.332Z,4.30
2023-01-17T13:56:28.808Z,4.30
2023-01-17T13:59:03.170Z,4.30
2023-01-17T14:01:38.747Z,4.30
2023-01-17T14:04:08.005Z,4.20
2023-01-17T14:06:40.860Z,4.20
2023-01-17T14:09:17.500Z,4.10
2023-01-17T14:11:57.408Z,4.10
2023-01-17T14:14:45.819Z,4.10
2023-01-17T14:17:20.737Z,4.10
2023-01-17T14:19:52.331Z,4.10
2023-01-17T14:22:20.223Z,4.10
2023-01-17T14:25:12.193Z,4.10
2023-01-17T14:27:58.931Z,4.10
2023-01-17T14:30:32.454Z,4.10
2023-01-17T14:33:01.183Z,4.10
2023-01-17T14:35:33.683Z,4.10
2023-01-17T14:38:05.982Z,4.10
2023-01-17T14:40:34.446Z,4.00
2023-01-17T14:43:03.546Z,3.90
2023-01-17T14:45:32.442Z,3.90
2023-01-17T14:48:01.401Z,3.90
2023-01-17T14:50:40.134Z,3.90
2023-01-17T14:53:13.788Z,3.80
2023-01-17T14:55:52.071Z,3.80
2023-01-17T14:58:24.205Z,3.90
2023-01-17T15:00:57.252Z,3.70
2023-01-17T15:03:24.569Z,3.70
2023-01-17T15:05:52.945Z,3.60
2023-01-17T15:08:22.367Z,3.60
2023-01-17T15:11:01.068Z,3.60
2023-01-17T15:13:44.269Z,3.60
2023-01-17T15:16:29.318Z,3.50
2023-01-17T15:18:57.605Z,3.50
2023-01-17T15:21:28.893Z,3.50
2023-01-17T15:23:58.303Z,3.40
2023-01-17T15:26:33.293Z,3.40
2023-01-17T15:29:05.978Z,3.20
2023-01-17T15:32:06.978Z,3.00
2023-01-17T15:34:39.527Z,2.80
2023-01-17T15:37:08.761Z,2.80
2023-01-17T15:39:38.119Z,2.80
2023-01-17T15:42:23.360Z,2.80
2023-01-17T15:44:57.713Z,2.80
2023-01-17T15:47:33.510Z,2.90
2023-01-17T15:50:02.421Z,3.00
2023-01-17T15:52:30.542Z,3.10
2023-01-17T15:55:13.236Z,3.00
2023-01-17T15:57:41.042Z,3.00
2023-01-17T16:00:18.597Z,2.90
2023-01-17T16:02:47.148Z,2.70
2023-01-17T16:05:31.581Z,2.70
2023-01-17T16:08:28.215Z,2.60
2023-01-17T16:10:59.505Z,2.60
2023-01-17T16:13:26.960Z,2.50
2023-01-17T16:15:54.382Z,2.50
2023-01-17T16:18:25.946Z,2.40
2023-01-17T16:21:00.822Z,2.50
2023-01-17T16:23:28.815Z,2.50
2023-01-17T16:25:56.143Z,2.40
2023-01-17T16:28:23.443Z,2.30
2023-01-17T16:30:54.241Z,2.30
2023-01-17T16:33:21.755Z,2.00
2023-01-17T16:35:51.457Z,2.00
2023-01-17T16:38:19.988Z,2.00
2023-01-17T16:40:47.376Z,2.10
2023-01-17T16:43:18.336Z,2.10
2023-01-17T16:45:53.509Z,2.20
2023-01-17T16:48:21.042Z,2.20
2023-01-17T16:50:51.104Z,2.10
2023-01-17T16:53:26.459Z,2.00
2023-01-17T16:55:57.060Z,2.10
2023-01-17T16:58:24.333Z,2.10
2023-01-17T17:00:52.120Z,2.20
2023-01-17T17:03:22.723Z,2.10
2023-01-17T17:06:00.307Z,2.20
2023-01-17T17:08:29.713Z,2.10
2023-01-17T17:11:13.444Z,2.00
2023-01-17T17:13:42.204Z,1.90
2023-01-17T17:16:15.492Z,1.80
2023-01-17T17:18:43.630Z,1.80
2023-01-17T17:21:12.013Z,1.70
2023-01-17T17:23:40.016Z,1.60
2023-01-17T17:26:07.339Z,1.50
2023-01-17T17:28:36.279Z,1.40
2023-01-17T17:31:12.830Z,1.40
2023-01-17T17:33:40.281Z,1.40
2023-01-17T17:36:08.582Z,1.30
2023-01-17T17:38:36.386Z,1.20
2023-01-17T17:41:10.292Z,1.20
2023-01-17T17:43:41.549Z,1.20
2023-01-17T17:46:08.879Z,1.20
2023-01-17T17:48:36.372Z,1.30
2023-01-17T17:51:05.287Z,1.30
2023-01-17T17:53:32.516Z,1.40
2023-01-17T17:56:04.590Z,1.40
2023-01-17T17:58:34.277Z,1.50
2023-01-17T18:01:05.814Z,1.60
2023-01-17T18:03:33.797Z,1.80
2023-01-17T18:06:03.132Z,2.00
2023-01-17T18:08:34.285Z,2.20
2023-01-17T18:11:15.125Z,2.30
2023-01-17T18:13:43.165Z,2.40
2023-01-17T18:16:12.325Z,2.40
2023-01-17T18:18:41.911Z,2.40
2023-01-17T18:21:12.576Z,2.00
2023-01-17T18:23:41.302Z,2.00
2023-01-17T18:26:25.037Z,2.00
2023-01-17T18:28:52.979Z,2.20
2023-01-17T18:31:21.303Z,2.40
2023-01-17T18:33:48.855Z,2.50
2023-01-17T18:36:16.125Z,2.60
2023-01-17T18:38:45.429Z,2.60
2023-01-17T18:41:33.395Z,2.70
2023-01-17T18:44:04.996Z,2.70
2023-01-17T18:46:32.517Z,2.80
2023-01-17T18:48:59.884Z,2.80
2023-01-17T18:51:29.018Z,2.90
2023-01-17T18:53:56.294Z,2.90
2023-01-17T18:56:23.805Z,2.90
2023-01-17T18:58:51.280Z,2.90
2023-01-17T19:01:29.496Z,3.00
2023-01-17T19:03:58.167Z,2.90
2023-01-17T19:06:33.052Z,2.70
2023-01-17T19:09:00.804Z,2.60
2023-01-17T19:11:28.559Z,2.50
2023-01-17T19:13:56.357Z,2.50
2023-01-17T19:16:25.881Z,2.40
2023-01-17T19:18:53.721Z,2.30
2023-01-17T19:21:23.266Z,2.40
2023-01-17T19:23:51.029Z,2.70
2023-01-17T19:26:20.143Z,2.80
2023-01-17T19:28:48.362Z,3.00
2023-01-17T19:31:23.409Z,3.00
2023-01-17T19:33:52.551Z,3.10
2023-01-17T19:36:21.805Z,3.10
2023-01-17T19:39:03.004Z,3.10
2023-01-17T19:41:32.566Z,3.10
2023-01-17T19:44:01.463Z,3.10
2023-01-17T19:46:28.709Z,3.00
2023-01-17T19:48:56.752Z,2.90
2023-01-17T19:51:24.960Z,2.80
2023-01-17T19:53:53.900Z,2.80
2023-01-17T19:56:23.344Z,2.90
2023-01-17T19:58:50.780Z,2.80
2023-01-17T20:01:20.201Z,2.80
2023-01-17T20:03:49.033Z,2.80
2023-01-17T20:06:19.284Z,2.80
2023-01-17T20:08:46.633Z,2.80
2023-01-17T20:11:21.587Z,2.70
2023-01-17T20:13:49.733Z,2.70
2023-01-17T20:16:17.541Z,2.70
2023-01-17T20:18:45.032Z,2.60
2023-01-17T20:21:20.184Z,2.50
2023-01-17T20:23:48.221Z,2.30
2023-01-17T20:26:17.473Z,2.20
2023-01-17T20:28:45.807Z,2.10
2023-01-17T20:31:15.428Z,2.00
2023-01-17T20:33:43.567Z,1.90
2023-01-17T20:36:13.200Z,1.90
2023-01-17T20:38:47.060Z,1.90
2023-01-17T20:41:24.141Z,2.00
2023-01-17T20:43:53.597Z,2.00
2023-01-17T20:46:22.344Z,1.90
2023-01-17T20:48:51.213Z,1.90
2023-01-17T20:51:19.031Z,1.80
2023-01-17T20:53:47.558Z,1.80
2023-01-17T20:56:15.687Z,1.80
2023-01-17T20:58:43.187Z,1.70
2023-01-17T21:01:11.856Z,1.80
2023-01-17T21:03:39.919Z,1.80
2023-01-17T21:06:09.131Z,1.80
2023-01-17T21:08:38.099Z,2.00
2023-01-17T21:11:05.822Z,2.10
2023-01-17T21:13:33.658Z,2.30
2023-01-17T21:16:01.182Z,2.20
2023-01-17T21:18:29.789Z,2.20
2023-01-17T21:21:08.319Z,2.10
2023-01-17T21:23:36.211Z,2.00
2023-01-17T21:26:03.902Z,1.90
2023-01-17T21:28:33.355Z,2.00
2023-01-17T21:31:00.992Z,2.10
2023-01-17T21:33:29.742Z,2.20
2023-01-17T21:36:06.166Z,2.40
2023-01-17T21:38:33.620Z,2.40
2023-01-17T21:41:01.008Z,2.50
2023-01-17T21:43:28.375Z,2.60
2023-01-17T21:45:55.792Z,2.60
2023-01-17T21:48:23.189Z,2.70
2023-01-17T21:50:53.124Z,2.80
2023-01-17T21:53:20.721Z,2.80
2023-01-17T21:56:06.859Z,2.80
2023-01-17T21:58:46.371Z,2.80
2023-01-17T22:01:22.552Z,2.70
2023-01-17T22:03:51.960Z,2.70
2023-01-17T22:06:20.184Z,2.80
2023-01-17T22:08:47.834Z,3.00
2023-01-17T22:11:17.232Z,3.00
2023-01-17T22:13:45.269Z,3.00
2023-01-17T22:16:14.801Z,3.00
2023-01-17T22:18:42.988Z,3.10
2023-01-17T22:21:22.144Z,3.00
2023-01-17T22:23:56.927Z,3.00
2023-01-17T22:26:30.997Z,3.10
2023-01-17T22:29:01.241Z,2.90
2023-01-17T22:31:28.765Z,2.90
2023-01-17T22:33:58.494Z,2.80
2023-01-17T22:36:26.146Z,2.90
2023-01-17T22:38:53.648Z,2.70
2023-01-17T22:41:23.473Z,2.40
2023-01-17T22:43:52.855Z,2.40
2023-01-17T22:46:22.910Z,2.20
2023-01-17T22:48:50.511Z,2.30
2023-01-17T22:51:18.344Z,2.20
2023-01-17T22:53:47.592Z,2.20
2023-01-17T22:56:17.126Z,2.20
2023-01-17T22:58:49.069Z,2.30
2023-01-17T23:01:22.088Z,2.20
2023-01-17T23:03:55.570Z,2.20
2023-01-17T23:06:27.973Z,2.20
2023-01-17T23:08:56.410Z,2.20
2023-01-17T23:11:43.081Z,2.10
2023-01-17T23:14:21.478Z,2.20
2023-01-17T23:17:20.631Z,2.00
2023-01-17T23:19:52.344Z,1.80
2023-01-17T23:22:24.003Z,1.70
2023-01-17T23:25:11.437Z,1.90
2023-01-17T23:28:03.613Z,2.00
2023-01-17T23:30:38.075Z,1.90
2023-01-17T23:33:10.529Z,2.00
2023-01-17T23:35:41.939Z,1.90
2023-01-17T23:38:34.234Z,2.00
2023-01-17T23:41:23.572Z,1.90
2023-01-17T23:43:55.150Z,1.80
2023-01-17T23:46:22.738Z,1.90
2023-01-17T23:48:50.255Z,2.00
2023-01-17T23:51:17.406Z,2.10
2023-01-17T23:53:44.724Z,2.20
2023-01-17T23:56:16.698Z,2.20
2023-01-17T23:58:44.157Z,2.20
